sensor_id;sensor_type;location;lat;lon;timestamp;pressure;altitude;pressure_sealevel;temperature;humidity
46506;BME280;32220;49.808;9.968;2023-03-26T00:01:44;98233.31;;;9.09;73.65
46506;BME280;32220;49.808;9.968;2023-03-26T00:04:15;98228.25;;;9.06;73.32
46506;BME280;32220;49.808;9.968;2023-03-26T00:06:46;98227.63;;;9.02;73.55
46506;BME280;32220;49.808;9.968;2023-03-26T00:09:15;98239.00;;;9.02;73.48
46506;BME280;32220;49.808;9.968;2023-03-26T00:11:43;98222.63;;;8.97;73.43
46506;BME280;32220;49.808;9.968;2023-03-26T00:14:12;98229.09;;;9.06;73.29
46506;BME280;32220;49.808;9.968;2023-03-26T00:16:43;98225.59;;;9.06;73.57
46506;BME280;32220;49.808;9.968;2023-03-26T00:19:12;98232.69;;;9.18;73.13
46506;BME280;32220;49.808;9.968;2023-03-26T00:21:40;98211.06;;;9.13;72.65
46506;BME280;32220;49.808;9.968;2023-03-26T00:24:10;98234.13;;;9.36;72.25
46506;BME280;32220;49.808;9.968;2023-03-26T00:26:40;98243.97;;;9.47;72.17
46506;BME280;32220;49.808;9.968;2023-03-26T00:29:08;98237.19;;;9.55;71.49
46506;BME280;32220;49.808;9.968;2023-03-26T00:31:38;98234.16;;;9.61;71.50
46506;BME280;32220;49.808;9.968;2023-03-26T00:34:11;98241.84;;;9.64;71.19
46506;BME280;32220;49.808;9.968;2023-03-26T00:36:40;98239.56;;;9.72;71.27
46506;BME280;32220;49.808;9.968;2023-03-26T00:39:10;98225.69;;;9.69;70.62
46506;BME280;32220;49.808;9.968;2023-03-26T00:41:39;98247.59;;;9.84;70.63
46506;BME280;32220;49.808;9.968;2023-03-26T00:44:08;98245.34;;;9.90;70.20
46506;BME280;32220;49.808;9.968;2023-03-26T00:46:36;98242.59;;;9.92;70.35
46506;BME280;32220;49.808;9.968;2023-03-26T00:49:04;98238.06;;;9.94;70.11
46506;BME280;32220;49.808;9.968;2023-03-26T00:51:35;98240.50;;;9.97;70.00
46506;BME280;32220;49.808;9.968;2023-03-26T00:54:04;98243.88;;;9.99;70.25
46506;BME280;32220;49.808;9.968;2023-03-26T00:56:34;98235.09;;;9.98;70.22
46506;BME280;32220;49.808;9.968;2023-03-26T00:59:02;98226.53;;;9.95;70.59
46506;BME280;32220;49.808;9.968;2023-03-26T01:01:30;98230.41;;;10.02;70.53
46506;BME280;32220;49.808;9.968;2023-03-26T01:04:19;98223.31;;;10.02;70.52
46506;BME280;32220;49.808;9.968;2023-03-26T01:06:50;98227.06;;;10.00;70.09
46506;BME280;32220;49.808;9.968;2023-03-26T01:09:20;98230.66;;;9.99;70.21
46506;BME280;32220;49.808;9.968;2023-03-26T01:11:49;98224.53;;;9.98;70.49
46506;BME280;32220;49.808;9.968;2023-03-26T01:14:19;98173.34;;;9.61;70.02
46506;BME280;32220;49.808;9.968;2023-03-26T01:16:51;98228.13;;;9.97;70.58
46506;BME280;32220;49.808;9.968;2023-03-26T01:19:26;98225.56;;;9.96;70.32
46506;BME280;32220;49.808;9.968;2023-03-26T01:21:56;98219.53;;;9.94;70.55
46506;BME280;32220;49.808;9.968;2023-03-26T01:24:26;98220.50;;;9.93;70.41
46506;BME280;32220;49.808;9.968;2023-03-26T01:27:03;98219.25;;;9.86;70.64
46506;BME280;32220;49.808;9.968;2023-03-26T01:29:42;98221.53;;;9.78;70.56
46506;BME280;32220;49.808;9.968;2023-03-26T01:32:20;98216.69;;;9.71;70.57
46506;BME280;32220;49.808;9.968;2023-03-26T01:34:56;98207.63;;;9.63;70.62
46506;BME280;32220;49.808;9.968;2023-03-26T01:37:33;98212.66;;;9.53;70.90
46506;BME280;32220;49.808;9.968;2023-03-26T01:40:16;98199.78;;;9.36;71.17
46506;BME280;32220;49.808;9.968;2023-03-26T01:42:54;98203.38;;;9.35;71.21
46506;BME280;32220;49.808;9.968;2023-03-26T01:45:26;98204.00;;;9.26;71.57
46506;BME280;32220;49.808;9.968;2023-03-26T01:47:54;98194.97;;;9.16;71.80
46506;BME280;32220;49.808;9.968;2023-03-26T01:50:23;98181.75;;;9.03;71.83
46506;BME280;32220;49.808;9.968;2023-03-26T01:52:50;98187.34;;;8.98;72.28
46506;BME280;32220;49.808;9.968;2023-03-26T01:55:21;98179.72;;;8.94;73.23
46506;BME280;32220;49.808;9.968;2023-03-26T01:57:59;98120.59;;;8.57;73.48
46506;BME280;32220;49.808;9.968;2023-03-26T02:00:33;98168.84;;;8.86;73.97
46506;BME280;32220;49.808;9.968;2023-03-26T02:03:12;98157.63;;;8.82;74.15
46506;BME280;32220;49.808;9.968;2023-03-26T02:05:49;98147.50;;;8.76;73.81
46506;BME280;32220;49.808;9.968;2023-03-26T02:08:22;98145.25;;;8.70;74.19
46506;BME280;32220;49.808;9.968;2023-03-26T02:10:55;98142.78;;;8.67;74.86
46506;BME280;32220;49.808;9.968;2023-03-26T02:13:24;98134.16;;;8.65;75.29
46506;BME280;32220;49.808;9.968;2023-03-26T02:15:58;98127.38;;;8.61;75.63
46506;BME280;32220;49.808;9.968;2023-03-26T02:18:27;98122.31;;;8.58;75.22
46506;BME280;32220;49.808;9.968;2023-03-26T02:21:03;98126.06;;;8.54;75.81
46506;BME280;32220;49.808;9.968;2023-03-26T02:23:31;98120.38;;;8.47;76.41
46506;BME280;32220;49.808;9.968;2023-03-26T02:26:05;98121.41;;;8.45;76.61
46506;BME280;32220;49.808;9.968;2023-03-26T02:28:36;98120.66;;;8.43;76.59
46506;BME280;32220;49.808;9.968;2023-03-26T02:31:04;98113.06;;;8.38;77.14
46506;BME280;32220;49.808;9.968;2023-03-26T02:33:35;98113.16;;;8.37;76.99
46506;BME280;32220;49.808;9.968;2023-03-26T02:36:04;98120.13;;;8.38;76.99
46506;BME280;32220;49.808;9.968;2023-03-26T02:38:34;98118.44;;;8.37;77.65
46506;BME280;32220;49.808;9.968;2023-03-26T02:41:05;98115.06;;;8.35;77.63
46506;BME280;32220;49.808;9.968;2023-03-26T02:43:55;98114.84;;;8.38;77.69
46506;BME280;32220;49.808;9.968;2023-03-26T02:46:31;98109.78;;;8.35;77.70
46506;BME280;32220;49.808;9.968;2023-03-26T02:49:14;98105.53;;;8.32;77.67
46506;BME280;32220;49.808;9.968;2023-03-26T02:51:43;98101.50;;;8.26;77.21
46506;BME280;32220;49.808;9.968;2023-03-26T02:54:24;98120.53;;;8.32;77.41
46506;BME280;32220;49.808;9.968;2023-03-26T02:57:13;98108.25;;;8.30;77.58
46506;BME280;32220;49.808;9.968;2023-03-26T02:59:44;98106.53;;;8.29;77.43
46506;BME280;32220;49.808;9.968;2023-03-26T03:02:34;98104.97;;;8.27;77.31
46506;BME280;32220;49.808;9.968;2023-03-26T03:05:22;98095.66;;;8.21;77.64
46506;BME280;32220;49.808;9.968;2023-03-26T03:08:03;98097.63;;;8.18;77.27
46506;BME280;32220;49.808;9.968;2023-03-26T03:10:33;98091.53;;;8.17;77.72
46506;BME280;32220;49.808;9.968;2023-03-26T03:13:12;98091.53;;;8.17;78.05
46506;BME280;32220;49.808;9.968;2023-03-26T03:15:40;98098.50;;;8.18;77.54
46506;BME280;32220;49.808;9.968;2023-03-26T03:18:09;98100.28;;;8.18;77.18
46506;BME280;32220;49.808;9.968;2023-03-26T03:20:36;98105.66;;;8.16;77.37
46506;BME280;32220;49.808;9.968;2023-03-26T03:23:04;98093.63;;;8.12;77.36
46506;BME280;32220;49.808;9.968;2023-03-26T03:25:32;98101.53;;;8.12;76.92
46506;BME280;32220;49.808;9.968;2023-03-26T03:28:00;98093.63;;;8.12;77.43
46506;BME280;32220;49.808;9.968;2023-03-26T03:30:30;98074.94;;;8.03;77.25
46506;BME280;32220;49.808;9.968;2023-03-26T03:33:27;98083.94;;;8.13;77.31
46506;BME280;32220;49.808;9.968;2023-03-26T03:35:55;98075.56;;;8.06;77.73
46506;BME280;32220;49.808;9.968;2023-03-26T03:38:25;98084.22;;;8.08;77.57
46506;BME280;32220;49.808;9.968;2023-03-26T03:40:54;98068.25;;;7.97;77.83
46506;BME280;32220;49.808;9.968;2023-03-26T03:43:26;98081.75;;;8.05;78.13
46506;BME280;32220;49.808;9.968;2023-03-26T03:46:04;98072.72;;;8.09;78.34
46506;BME280;32220;49.808;9.968;2023-03-26T03:48:36;98067.63;;;8.06;78.11
46506;BME280;32220;49.808;9.968;2023-03-26T03:51:06;98078.56;;;8.14;77.58
46506;BME280;32220;49.808;9.968;2023-03-26T03:53:46;98076.78;;;8.15;77.45
46506;BME280;32220;49.808;9.968;2023-03-26T03:56:19;98052.25;;;8.00;77.64
46506;BME280;32220;49.808;9.968;2023-03-26T03:59:07;98082.13;;;8.13;77.40
46506;BME280;32220;49.808;9.968;2023-03-26T04:01:38;98072.44;;;8.14;77.96
46506;BME280;32220;49.808;9.968;2023-03-26T04:04:14;98071.50;;;8.15;77.87
46506;BME280;32220;49.808;9.968;2023-03-26T04:07:03;98071.38;;;8.16;78.11
46506;BME280;32220;49.808;9.968;2023-03-26T04:09:57;98070.22;;;8.20;78.23
46506;BME280;32220;49.808;9.968;2023-03-26T04:12:34;98075.31;;;8.23;77.89
46506;BME280;32220;49.808;9.968;2023-03-26T04:15:05;98069.94;;;8.25;77.54
46506;BME280;32220;49.808;9.968;2023-03-26T04:17:34;98061.56;;;8.18;77.83
46506;BME280;32220;49.808;9.968;2023-03-26T04:20:12;98069.19;;;8.23;77.98
46506;BME280;32220;49.808;9.968;2023-03-26T04:22:42;98074.91;;;8.29;77.75
46506;BME280;32220;49.808;9.968;2023-03-26T04:25:12;98073.78;;;8.34;77.95
46506;BME280;32220;49.808;9.968;2023-03-26T04:27:50;98076.75;;;8.42;77.41
46506;BME280;32220;49.808;9.968;2023-03-26T04:30:51;98068.25;;;8.51;77.71
46506;BME280;32220;49.808;9.968;2023-03-26T04:33:33;98064.25;;;8.58;77.51
46506;BME280;32220;49.808;9.968;2023-03-26T04:36:04;98058.56;;;8.64;76.93
46506;BME280;32220;49.808;9.968;2023-03-26T04:38:39;98051.16;;;8.69;76.99
46506;BME280;32220;49.808;9.968;2023-03-26T04:41:10;98045.69;;;8.72;76.82
46506;BME280;32220;49.808;9.968;2023-03-26T04:43:41;98045.25;;;8.78;77.01
46506;BME280;32220;49.808;9.968;2023-03-26T04:46:32;98059.09;;;8.82;76.74
46506;BME280;32220;49.808;9.968;2023-03-26T04:49:13;98045.78;;;8.83;76.72
46506;BME280;32220;49.808;9.968;2023-03-26T04:51:41;98049.19;;;8.85;76.32
46506;BME280;32220;49.808;9.968;2023-03-26T04:54:34;98037.88;;;8.83;76.41
46506;BME280;32220;49.808;9.968;2023-03-26T04:57:10;98034.50;;;8.81;76.18
46506;BME280;32220;49.808;9.968;2023-03-26T04:59:48;98036.28;;;8.81;76.46
46506;BME280;32220;49.808;9.968;2023-03-26T05:02:16;98028.47;;;8.79;76.01
46506;BME280;32220;49.808;9.968;2023-03-26T05:04:53;98033.66;;;8.81;76.25
46506;BME280;32220;49.808;9.968;2023-03-26T05:07:25;98020.69;;;8.78;76.54
46506;BME280;32220;49.808;9.968;2023-03-26T05:09:55;98010.22;;;8.76;76.38
46506;BME280;32220;49.808;9.968;2023-03-26T05:12:58;97999.88;;;8.73;76.28
46506;BME280;32220;49.808;9.968;2023-03-26T05:15:31;97998.91;;;8.74;76.35
46506;BME280;32220;49.808;9.968;2023-03-26T05:18:12;97980.00;;;8.68;76.12
46506;BME280;32220;49.808;9.968;2023-03-26T05:20:44;97957.44;;;8.63;76.09
46506;BME280;32220;49.808;9.968;2023-03-26T05:23:12;97986.78;;;8.84;76.13
46506;BME280;32220;49.808;9.968;2023-03-26T05:25:48;97976.22;;;8.84;75.73
46506;BME280;32220;49.808;9.968;2023-03-26T05:28:19;97968.41;;;8.83;75.65
46506;BME280;32220;49.808;9.968;2023-03-26T05:31:22;97978.75;;;8.86;76.03
46506;BME280;32220;49.808;9.968;2023-03-26T05:33:55;97965.84;;;8.81;75.67
46506;BME280;32220;49.808;9.968;2023-03-26T05:36:24;97959.13;;;8.77;76.11
46506;BME280;32220;49.808;9.968;2023-03-26T05:39:03;97959.31;;;8.74;76.41
46506;BME280;32220;49.808;9.968;2023-03-26T05:41:57;97947.28;;;8.70;76.69
46506;BME280;32220;49.808;9.968;2023-03-26T05:44:33;97930.19;;;8.63;76.31
46506;BME280;32220;49.808;9.968;2023-03-26T05:47:06;97949.16;;;8.81;76.33
46506;BME280;32220;49.808;9.968;2023-03-26T05:49:34;97928.28;;;8.78;76.15
46506;BME280;32220;49.808;9.968;2023-03-26T05:52:04;97935.34;;;8.90;76.01
46506;BME280;32220;49.808;9.968;2023-03-26T05:54:58;97935.53;;;8.99;75.55
46506;BME280;32220;49.808;9.968;2023-03-26T05:57:44;97931.50;;;9.07;75.49
46506;BME280;32220;49.808;9.968;2023-03-26T06:00:35;97913.22;;;9.04;75.49
46506;BME280;32220;49.808;9.968;2023-03-26T06:03:05;97917.63;;;9.16;75.13
46506;BME280;32220;49.808;9.968;2023-03-26T06:05:56;97919.84;;;9.22;75.41
46506;BME280;32220;49.808;9.968;2023-03-26T06:08:40;97915.69;;;9.30;74.75
46506;BME280;32220;49.808;9.968;2023-03-26T06:11:09;97896.25;;;9.31;74.74
46506;BME280;32220;49.808;9.968;2023-03-26T06:13:38;97908.13;;;9.50;74.40
46506;BME280;32220;49.808;9.968;2023-03-26T06:16:07;97907.34;;;9.60;73.93
46506;BME280;32220;49.808;9.968;2023-03-26T06:18:39;97904.00;;;9.69;73.91
46506;BME280;32220;49.808;9.968;2023-03-26T06:21:42;97902.13;;;9.83;73.58
46506;BME280;32220;49.808;9.968;2023-03-26T06:24:18;97880.25;;;9.81;73.13
46506;BME280;32220;49.808;9.968;2023-03-26T06:27:02;97885.34;;;9.95;72.86
46506;BME280;32220;49.808;9.968;2023-03-26T06:29:49;97886.56;;;10.02;72.78
46506;BME280;32220;49.808;9.968;2023-03-26T06:32:33;97889.47;;;10.10;72.56
46506;BME280;32220;49.808;9.968;2023-03-26T06:35:07;97882.88;;;10.16;72.15
46506;BME280;32220;49.808;9.968;2023-03-26T06:37:36;97876.09;;;10.24;71.85
46506;BME280;32220;49.808;9.968;2023-03-26T06:40:07;97861.63;;;10.28;71.70
46506;BME280;32220;49.808;9.968;2023-03-26T06:43:04;97861.63;;;10.39;71.38
46506;BME280;32220;49.808;9.968;2023-03-26T06:46:08;97880.22;;;10.62;71.16
46506;BME280;32220;49.808;9.968;2023-03-26T06:48:39;97881.78;;;10.75;71.02
46506;BME280;32220;49.808;9.968;2023-03-26T06:51:25;97887.75;;;10.89;70.73
46506;BME280;32220;49.808;9.968;2023-03-26T06:54:11;97887.19;;;10.96;69.92
46506;BME280;32220;49.808;9.968;2023-03-26T06:57:03;97873.44;;;11.02;69.59
46506;BME280;32220;49.808;9.968;2023-03-26T06:59:31;97852.84;;;10.95;69.20
46506;BME280;32220;49.808;9.968;2023-03-26T07:02:17;97869.22;;;11.11;69.03
46506;BME280;32220;49.808;9.968;2023-03-26T07:05:03;97866.66;;;11.21;69.20
46506;BME280;32220;49.808;9.968;2023-03-26T07:07:50;97866.03;;;11.28;69.01
46506;BME280;32220;49.808;9.968;2023-03-26T07:10:37;97866.75;;;11.30;68.66
46506;BME280;32220;49.808;9.968;2023-03-26T07:13:06;97865.44;;;11.36;68.44
46506;BME280;32220;49.808;9.968;2023-03-26T07:15:47;97857.69;;;11.44;67.99
46506;BME280;32220;49.808;9.968;2023-03-26T07:18:33;97858.16;;;11.49;67.24
46506;BME280;32220;49.808;9.968;2023-03-26T07:21:03;97858.84;;;11.51;67.35
46506;BME280;32220;49.808;9.968;2023-03-26T07:23:33;97854.88;;;11.57;67.29
46506;BME280;32220;49.808;9.968;2023-03-26T07:26:25;97848.91;;;11.64;66.76
46506;BME280;32220;49.808;9.968;2023-03-26T07:29:27;97844.56;;;11.74;66.74
46506;BME280;32220;49.808;9.968;2023-03-26T07:32:20;97832.63;;;11.69;65.71
46506;BME280;32220;49.808;9.968;2023-03-26T07:34:54;97844.81;;;11.71;65.87
46506;BME280;32220;49.808;9.968;2023-03-26T07:37:31;97810.44;;;11.49;65.60
46506;BME280;32220;49.808;9.968;2023-03-26T07:40:18;97829.97;;;11.69;66.21
46506;BME280;32220;49.808;9.968;2023-03-26T07:43:19;97818.22;;;11.62;66.18
46506;BME280;32220;49.808;9.968;2023-03-26T07:46:10;97805.19;;;11.59;65.64
46506;BME280;32220;49.808;9.968;2023-03-26T07:48:47;97818.28;;;11.71;65.75
46506;BME280;32220;49.808;9.968;2023-03-26T07:51:55;97816.94;;;11.77;65.39
46506;BME280;32220;49.808;9.968;2023-03-26T07:54:44;97809.69;;;11.79;65.36
46506;BME280;32220;49.808;9.968;2023-03-26T07:57:38;97794.19;;;11.63;65.83
46506;BME280;32220;49.808;9.968;2023-03-26T08:00:32;97791.81;;;11.60;66.61
46506;BME280;32220;49.808;9.968;2023-03-26T08:03:21;97781.53;;;11.46;66.86
46506;BME280;32220;49.808;9.968;2023-03-26T08:06:27;97784.47;;;11.32;67.56
46506;BME280;32220;49.808;9.968;2023-03-26T08:09:09;97781.63;;;11.24;68.24
46506;BME280;32220;49.808;9.968;2023-03-26T08:11:47;97774.16;;;11.18;69.08
46506;BME280;32220;49.808;9.968;2023-03-26T08:14:30;97750.84;;;11.11;70.01
46506;BME280;32220;49.808;9.968;2023-03-26T08:17:04;97698.19;;;10.86;70.67
46506;BME280;32220;49.808;9.968;2023-03-26T08:19:46;97754.16;;;11.13;71.55
46506;BME280;32220;49.808;9.968;2023-03-26T08:22:19;97754.16;;;11.13;71.90
46506;BME280;32220;49.808;9.968;2023-03-26T08:28:56;97700.16;;;10.73;73.15
46506;BME280;32220;49.808;9.968;2023-03-26T08:31:30;97736.22;;;10.85;73.84
46506;BME280;32220;49.808;9.968;2023-03-26T08:33:59;97730.44;;;10.80;73.74
46506;BME280;32220;49.808;9.968;2023-03-26T08:36:29;97729.28;;;10.73;74.00
46506;BME280;32220;49.808;9.968;2023-03-26T08:38:57;97727.00;;;10.68;74.58
46506;BME280;32220;49.808;9.968;2023-03-26T08:45:05;97713.88;;;10.67;75.59
46506;BME280;32220;49.808;9.968;2023-03-26T08:51:19;97708.09;;;10.73;78.30
46506;BME280;32220;49.808;9.968;2023-03-26T08:54:21;97710.03;;;10.71;77.59
46506;BME280;32220;49.808;9.968;2023-03-26T08:57:01;97711.47;;;10.64;78.37
46506;BME280;32220;49.808;9.968;2023-03-26T09:00:00;97693.09;;;10.51;78.63
46506;BME280;32220;49.808;9.968;2023-03-26T09:02:52;97701.38;;;10.58;79.12
46506;BME280;32220;49.808;9.968;2023-03-26T09:05:48;97703.53;;;10.64;79.36
46506;BME280;32220;49.808;9.968;2023-03-26T09:15:11;97691.44;;;10.82;79.23
46506;BME280;32220;49.808;9.968;2023-03-26T09:21:17;97692.28;;;10.83;79.09
46506;BME280;32220;49.808;9.968;2023-03-26T09:24:17;97690.56;;;10.93;79.47
46506;BME280;32220;49.808;9.968;2023-03-26T09:26:59;97674.78;;;10.91;79.54
46506;BME280;32220;49.808;9.968;2023-03-26T09:30:02;97678.56;;;11.09;79.31
46506;BME280;32220;49.808;9.968;2023-03-26T09:35:49;97669.06;;;11.28;79.32
46506;BME280;32220;49.808;9.968;2023-03-26T09:38:35;97672.63;;;11.38;79.06
46506;BME280;32220;49.808;9.968;2023-03-26T09:41:13;97669.53;;;11.33;78.90
46506;BME280;32220;49.808;9.968;2023-03-26T09:43:53;97676.09;;;11.38;79.73
46506;BME280;32220;49.808;9.968;2023-03-26T09:46:35;97634.28;;;11.00;79.49
46506;BME280;32220;49.808;9.968;2023-03-26T09:49:26;97677.31;;;11.25;79.55
46506;BME280;32220;49.808;9.968;2023-03-26T09:55:17;97677.97;;;11.27;79.76
46506;BME280;32220;49.808;9.968;2023-03-26T09:58:01;97673.41;;;11.29;79.45
46506;BME280;32220;49.808;9.968;2023-03-26T10:00:39;97675.09;;;11.30;80.17
46506;BME280;32220;49.808;9.968;2023-03-26T10:03:24;97675.69;;;11.33;80.04
46506;BME280;32220;49.808;9.968;2023-03-26T10:06:00;97682.72;;;11.44;79.72
46506;BME280;32220;49.808;9.968;2023-03-26T10:08:50;97669.72;;;11.41;79.90
46506;BME280;32220;49.808;9.968;2023-03-26T10:11:28;97672.63;;;11.38;79.46
46506;BME280;32220;49.808;9.968;2023-03-26T10:14:06;97629.84;;;11.22;79.19
46506;BME280;32220;49.808;9.968;2023-03-26T10:16:49;97678.06;;;11.57;79.38
46506;BME280;32220;49.808;9.968;2023-03-26T10:19:40;97676.13;;;11.59;78.97
46506;BME280;32220;49.808;9.968;2023-03-26T10:22:28;97670.78;;;11.49;79.32
46506;BME280;32220;49.808;9.968;2023-03-26T10:25:14;97664.81;;;11.57;79.18
46506;BME280;32220;49.808;9.968;2023-03-26T10:27:51;97667.31;;;11.59;78.93
46506;BME280;32220;49.808;9.968;2023-03-26T10:30:40;97663.63;;;11.71;78.77
46506;BME280;32220;49.808;9.968;2023-03-26T10:33:17;97653.25;;;11.88;78.31
46506;BME280;32220;49.808;9.968;2023-03-26T10:35:58;97610.16;;;11.96;78.37
46506;BME280;32220;49.808;9.968;2023-03-26T10:38:39;97658.63;;;12.67;77.62
46506;BME280;32220;49.808;9.968;2023-03-26T10:41:19;97653.03;;;12.99;76.90
46506;BME280;32220;49.808;9.968;2023-03-26T10:44:13;97661.72;;;13.01;76.20
46506;BME280;32220;49.808;9.968;2023-03-26T10:47:00;97655.56;;;12.72;76.10
46506;BME280;32220;49.808;9.968;2023-03-26T10:52:45;97645.44;;;12.37;74.29
46506;BME280;32220;49.808;9.968;2023-03-26T10:55:18;97668.34;;;12.38;74.44
46506;BME280;32220;49.808;9.968;2023-03-26T10:57:51;97661.59;;;12.24;73.91
46506;BME280;32220;49.808;9.968;2023-03-26T11:00:22;97660.47;;;12.07;74.73
46506;BME280;32220;49.808;9.968;2023-03-26T11:05:57;97668.19;;;11.90;75.31
46506;BME280;32220;49.808;9.968;2023-03-26T11:08:34;97647.56;;;11.93;75.91
46506;BME280;32220;49.808;9.968;2023-03-26T11:11:15;97683.03;;;12.02;73.96
46506;BME280;32220;49.808;9.968;2023-03-26T11:13:54;97641.50;;;11.81;74.67
46506;BME280;32220;49.808;9.968;2023-03-26T11:16:32;97634.50;;;12.11;75.18
46506;BME280;32220;49.808;9.968;2023-03-26T11:19:08;97633.91;;;12.95;75.41
46506;BME280;32220;49.808;9.968;2023-03-26T11:21:46;97630.50;;;13.88;72.90
46506;BME280;32220;49.808;9.968;2023-03-26T11:24:54;97606.53;;;14.70;72.17
46506;BME280;32220;49.808;9.968;2023-03-26T11:27:37;97630.34;;;15.77;69.22
46506;BME280;32220;49.808;9.968;2023-03-26T11:30:20;97649.63;;;16.65;66.16
46506;BME280;32220;49.808;9.968;2023-03-26T11:32:54;97660.38;;;17.13;59.78
46506;BME280;32220;49.808;9.968;2023-03-26T11:35:26;97668.69;;;18.08;57.50
46506;BME280;32220;49.808;9.968;2023-03-26T11:38:01;97661.06;;;19.51;53.44
46506;BME280;32220;49.808;9.968;2023-03-26T11:40:32;97666.06;;;21.01;52.02
46506;BME280;32220;49.808;9.968;2023-03-26T11:43:05;97673.84;;;21.81;49.53
46506;BME280;32220;49.808;9.968;2023-03-26T11:45:35;97664.88;;;22.30;47.51
46506;BME280;32220;49.808;9.968;2023-03-26T11:48:07;97708.41;;;23.03;43.50
46506;BME280;32220;49.808;9.968;2023-03-26T11:50:41;97706.13;;;23.00;43.24
46506;BME280;32220;49.808;9.968;2023-03-26T11:53:13;97692.03;;;23.04;43.91
46506;BME280;32220;49.808;9.968;2023-03-26T11:55:45;97690.25;;;22.36;42.68
46506;BME280;32220;49.808;9.968;2023-03-26T11:58:27;97701.19;;;21.78;42.44
46506;BME280;32220;49.808;9.968;2023-03-26T12:00:56;97678.19;;;20.76;43.74
46506;BME280;32220;49.808;9.968;2023-03-26T12:03:24;97652.78;;;20.64;45.55
46506;BME280;32220;49.808;9.968;2023-03-26T12:05:57;97653.00;;;20.48;45.06
46506;BME280;32220;49.808;9.968;2023-03-26T12:08:32;97642.50;;;20.08;45.83
46506;BME280;32220;49.808;9.968;2023-03-26T12:11:06;97642.13;;;20.12;45.47
46506;BME280;32220;49.808;9.968;2023-03-26T12:13:42;97635.53;;;19.85;46.19
46506;BME280;32220;49.808;9.968;2023-03-26T12:16:14;97628.78;;;20.48;46.43
46506;BME280;32220;49.808;9.968;2023-03-26T12:18:43;97640.44;;;22.79;43.15
46506;BME280;32220;49.808;9.968;2023-03-26T12:21:13;97659.38;;;24.70;38.54
46506;BME280;32220;49.808;9.968;2023-03-26T12:23:50;97659.06;;;25.86;37.77
46506;BME280;32220;49.808;9.968;2023-03-26T12:26:29;97623.56;;;27.04;36.19
46506;BME280;32220;49.808;9.968;2023-03-26T12:29:06;97661.69;;;27.27;34.41
46506;BME280;32220;49.808;9.968;2023-03-26T12:32:02;97653.34;;;25.45;36.13
46506;BME280;32220;49.808;9.968;2023-03-26T12:34:32;97635.97;;;23.98;36.95
46506;BME280;32220;49.808;9.968;2023-03-26T12:37:02;97631.47;;;22.72;39.02
46506;BME280;32220;49.808;9.968;2023-03-26T12:39:36;97614.09;;;21.71;41.04
46506;BME280;32220;49.808;9.968;2023-03-26T12:42:13;97593.81;;;20.84;42.52
46506;BME280;32220;49.808;9.968;2023-03-26T12:44:52;97564.38;;;20.10;43.90
46506;BME280;32220;49.808;9.968;2023-03-26T12:47:24;97595.13;;;19.93;43.94
46506;BME280;32220;49.808;9.968;2023-03-26T12:49:56;97575.34;;;19.64;44.57
46506;BME280;32220;49.808;9.968;2023-03-26T12:52:46;97605.09;;;21.64;40.88
46506;BME280;32220;49.808;9.968;2023-03-26T12:55:41;97614.03;;;22.27;39.25
46506;BME280;32220;49.808;9.968;2023-03-26T12:58:34;97595.06;;;21.79;41.03
46506;BME280;32220;49.808;9.968;2023-03-26T13:01:11;97585.69;;;23.25;40.27
46506;BME280;32220;49.808;9.968;2023-03-26T13:03:58;97612.22;;;25.48;35.42
46506;BME280;32220;49.808;9.968;2023-03-26T13:06:37;97612.34;;;26.82;32.74
46506;BME280;32220;49.808;9.968;2023-03-26T13:09:45;97616.09;;;28.69;32.09
46506;BME280;32220;49.808;9.968;2023-03-26T13:12:28;97610.28;;;27.67;31.72
46506;BME280;32220;49.808;9.968;2023-03-26T13:15:12;97607.97;;;28.46;30.45
46506;BME280;32220;49.808;9.968;2023-03-26T13:17:52;97603.22;;;26.95;32.25
46506;BME280;32220;49.808;9.968;2023-03-26T13:20:30;97584.53;;;25.46;33.35
46506;BME280;32220;49.808;9.968;2023-03-26T13:23:11;97560.69;;;24.09;34.96
46506;BME280;32220;49.808;9.968;2023-03-26T13:25:51;97564.28;;;23.10;36.65
46506;BME280;32220;49.808;9.968;2023-03-26T13:28:29;97551.47;;;22.51;37.79
46506;BME280;32220;49.808;9.968;2023-03-26T13:31:06;97527.22;;;22.04;38.17
46506;BME280;32220;49.808;9.968;2023-03-26T13:33:48;97516.84;;;21.66;39.49
46506;BME280;32220;49.808;9.968;2023-03-26T13:36:25;97526.84;;;22.13;39.29
46506;BME280;32220;49.808;9.968;2023-03-26T13:39:06;97542.66;;;22.23;37.93
46506;BME280;32220;49.808;9.968;2023-03-26T13:41:47;97524.13;;;21.38;38.46
46506;BME280;32220;49.808;9.968;2023-03-26T13:44:25;97535.50;;;20.48;39.76
46506;BME280;32220;49.808;9.968;2023-03-26T13:47:06;97513.41;;;19.43;41.49
46506;BME280;32220;49.808;9.968;2023-03-26T13:49:40;97503.94;;;18.57;43.48
46506;BME280;32220;49.808;9.968;2023-03-26T13:52:12;97515.34;;;17.67;47.03
46506;BME280;32220;49.808;9.968;2023-03-26T13:54:44;97496.41;;;16.88;50.15
46506;BME280;32220;49.808;9.968;2023-03-26T13:57:20;97456.75;;;17.16;52.46
46506;BME280;32220;49.808;9.968;2023-03-26T13:59:54;97452.22;;;18.72;50.19
46506;BME280;32220;49.808;9.968;2023-03-26T14:02:29;97478.94;;;19.91;47.99
46506;BME280;32220;49.808;9.968;2023-03-26T14:05:08;97463.22;;;20.38;45.70
46506;BME280;32220;49.808;9.968;2023-03-26T14:07:42;97472.97;;;20.89;44.48
46506;BME280;32220;49.808;9.968;2023-03-26T14:10:15;97489.50;;;21.35;43.94
46506;BME280;32220;49.808;9.968;2023-03-26T14:12:50;97474.53;;;21.60;43.99
46506;BME280;32220;49.808;9.968;2023-03-26T14:15:23;97498.19;;;22.06;41.53
46506;BME280;32220;49.808;9.968;2023-03-26T14:17:59;97481.03;;;22.20;41.36
46506;BME280;32220;49.808;9.968;2023-03-26T14:21:19;97499.59;;;22.49;40.40
46506;BME280;32220;49.808;9.968;2023-03-26T14:24:01;97500.03;;;22.60;38.98
46506;BME280;32220;49.808;9.968;2023-03-26T14:26:47;97520.47;;;23.21;37.69
46506;BME280;32220;49.808;9.968;2023-03-26T14:29:27;97527.28;;;23.70;37.16
46506;BME280;32220;49.808;9.968;2023-03-26T14:32:02;97533.53;;;23.57;36.02
46506;BME280;32220;49.808;9.968;2023-03-26T14:34:47;97511.72;;;22.93;37.23
46506;BME280;32220;49.808;9.968;2023-03-26T14:38:01;97507.38;;;22.18;38.77